Time,TemperatureF,DewpointF,PressureIn,WindDirection,WindDirectionDegrees,WindSpeedMPH,WindSpeedGustMPH,Humidity,HourlyPrecipIn,Conditions,Clouds,dailyrainin,SolarRadiationWatts/m^2,SoftwareType,DateUTC
2013-05-23 00:02:00,35.0,33.0,-100.00,SW,220,6.0,16.0,93,0.00,,,0.19,0.000000,,2013-05-23 07:02:00,
2013-05-23 00:11:00,35.0,33.0,-100.00,SW,220,6.0,16.0,93,0.00,,,0.19,0.000000,,2013-05-23 07:11:00,
2013-05-23 00:32:00,34.0,33.0,-100.00,ESE,116,1.0,9.0,95,0.00,,,0.19,0.000000,,2013-05-23 07:32:00,
2013-05-23 00:42:00,34.0,33.0,-100.00,ESE,116,1.0,9.0,95,0.00,,,0.19,0.000000,,2013-05-23 07:42:00,
2013-05-23 00:59:00,34.0,33.0,-100.00,ESE,116,1.0,9.0,95,0.00,,,0.19,0.000000,,2013-05-23 07:59:00,
2013-05-23 01:11:00,34.0,33.0,-100.00,ESE,116,1.0,9.0,95,0.00,,,0.19,0.000000,,2013-05-23 08:11:00,
2013-05-23 01:32:00,36.0,34.0,-100.00,SSW,202,2.0,13.0,92,0.00,,,0.19,0.000000,,2013-05-23 08:32:00,
2013-05-23 01:42:00,36.0,34.0,-100.00,SSW,202,2.0,13.0,92,0.00,,,0.19,0.000000,,2013-05-23 08:42:00,
2013-05-23 01:52:00,36.0,34.0,-100.00,SSW,202,2.0,13.0,92,0.00,,,0.19,0.000000,,2013-05-23 08:52:00,
2013-05-23 02:01:00,36.0,34.0,-100.00,SSW,202,2.0,13.0,92,0.00,,,0.19,0.000000,,2013-05-23 09:01:00,
2013-05-23 02:11:00,36.0,34.0,-100.00,SSW,202,2.0,13.0,92,0.00,,,0.19,0.000000,,2013-05-23 09:11:00,
2013-05-23 02:42:00,34.0,32.0,-100.00,East,98,1.0,9.0,94,0.00,,,0.19,0.000000,,2013-05-23 09:42:00,
2013-05-23 02:53:00,34.0,32.0,-100.00,East,98,1.0,9.0,94,0.00,,,0.19,0.000000,,2013-05-23 09:53:00,
2013-05-23 03:02:00,34.0,32.0,-100.00,East,98,1.0,9.0,94,0.00,,,0.19,0.000000,,2013-05-23 10:02:00,
2013-05-23 03:12:00,34.0,32.0,-100.00,East,98,1.0,9.0,94,0.00,,,0.19,0.000000,,2013-05-23 10:12:00,
2013-05-23 03:32:00,35.0,33.0,-100.00,SSW,195,3.0,7.0,93,0.00,,,0.19,0.000000,,2013-05-23 10:32:00,
2013-05-23 03:42:00,35.0,33.0,-100.00,SSW,195,3.0,7.0,93,0.00,,,0.19,0.000000,,2013-05-23 10:42:00,
2013-05-23 03:52:00,35.0,33.0,-100.00,SSW,195,3.0,7.0,93,0.00,,,0.19,0.000000,,2013-05-23 10:52:00,
2013-05-23 04:02:00,35.0,33.0,-100.00,SSW,195,3.0,7.0,93,0.00,,,0.19,0.000000,,2013-05-23 11:02:00,
2013-05-23 04:11:00,35.0,33.0,-100.00,SSW,195,3.0,7.0,93,0.00,,,0.19,0.000000,,2013-05-23 11:11:00,
2013-05-23 04:42:00,34.0,32.0,-100.00,SSW,202,1.0,13.0,94,0.00,,,0.19,0.000000,,2013-05-23 11:42:00,
2013-05-23 04:52:00,34.0,32.0,-100.00,SSW,202,1.0,13.0,94,0.00,,,0.19,0.000000,,2013-05-23 11:52:00,
2013-05-23 05:01:00,34.0,32.0,-100.00,SSW,202,1.0,13.0,94,0.00,,,0.19,0.000000,,2013-05-23 12:01:00,
2013-05-23 05:11:00,34.0,32.0,-100.00,SSW,202,1.0,13.0,94,0.00,,,0.19,0.000000,,2013-05-23 12:11:00,
2013-05-23 05:32:00,34.0,32.0,-100.00,West,275,1.0,6.0,93,0.00,,,0.19,0.000000,,2013-05-23 12:32:00,
2013-05-23 05:42:00,34.0,32.0,-100.00,West,275,1.0,6.0,93,0.00,,,0.19,0.000000,,2013-05-23 12:42:00,
2013-05-23 05:52:00,34.0,32.0,-100.00,West,275,1.0,6.0,93,0.00,,,0.19,0.000000,,2013-05-23 12:52:00,
2013-05-23 06:01:00,34.0,32.0,-100.00,West,275,1.0,6.0,93,0.00,,,0.19,0.000000,,2013-05-23 13:01:00,
2013-05-23 06:11:00,34.0,32.0,-100.00,West,275,1.0,6.0,93,0.00,,,0.19,0.000000,,2013-05-23 13:11:00,
2013-05-23 06:32:00,36.0,33.0,-100.00,SW,224,2.0,6.0,90,0.00,,,0.19,11.000000,,2013-05-23 13:32:00,
2013-05-23 06:42:00,36.0,33.0,-100.00,SW,224,2.0,6.0,90,0.00,,,0.19,11.000000,,2013-05-23 13:42:00,
2013-05-23 06:52:00,36.0,33.0,-100.00,SW,224,2.0,6.0,90,0.00,,,0.19,11.000000,,2013-05-23 13:52:00,
2013-05-23 07:01:00,36.0,33.0,-100.00,SW,224,2.0,6.0,90,0.00,,,0.19,11.000000,,2013-05-23 14:01:00,
2013-05-23 07:11:00,36.0,33.0,-100.00,SW,224,2.0,6.0,90,0.00,,,0.19,11.000000,,2013-05-23 14:11:00,
2013-05-23 07:42:00,38.0,35.0,-100.00,SSW,211,4.0,12.0,88,0.00,,,0.19,53.000000,,2013-05-23 14:42:00,
2013-05-23 07:52:00,38.0,35.0,-100.00,SSW,211,4.0,12.0,88,0.00,,,0.19,53.000000,,2013-05-23 14:52:00,
2013-05-23 08:01:00,38.0,35.0,-100.00,SSW,211,4.0,12.0,88,0.00,,,0.19,53.000000,,2013-05-23 15:01:00,
2013-05-23 08:11:00,38.0,35.0,-100.00,SSW,211,4.0,12.0,88,0.00,,,0.19,53.000000,,2013-05-23 15:11:00,
2013-05-23 08:33:00,43.0,37.0,-100.00,SSW,202,4.0,12.0,78,0.00,,,0.19,284.000000,,2013-05-23 15:33:00,
2013-05-23 08:43:00,43.0,37.0,-100.00,SSW,202,4.0,12.0,78,0.00,,,0.19,284.000000,,2013-05-23 15:43:00,
2013-05-23 08:53:00,43.0,37.0,-100.00,SSW,202,4.0,12.0,78,0.00,,,0.19,284.000000,,2013-05-23 15:53:00,
2013-05-23 09:03:00,43.0,37.0,-100.00,SSW,202,4.0,12.0,78,0.00,,,0.19,284.000000,,2013-05-23 16:03:00,
2013-05-23 09:12:00,43.0,37.0,-100.00,SSW,202,4.0,12.0,78,0.00,,,0.19,284.000000,,2013-05-23 16:12:00,
2013-05-23 09:34:00,46.0,37.0,-100.00,SSW,195,4.0,11.0,72,0.01,,,0.19,474.000000,,2013-05-23 16:34:00,
2013-05-23 09:43:00,46.0,37.0,-100.00,SSW,195,4.0,11.0,72,0.01,,,0.19,474.000000,,2013-05-23 16:43:00,
2013-05-23 09:52:00,46.0,37.0,-100.00,SSW,195,4.0,11.0,72,0.01,,,0.19,474.000000,,2013-05-23 16:52:00,
2013-05-23 10:03:00,46.0,37.0,-100.00,SSW,195,4.0,11.0,72,0.01,,,0.19,474.000000,,2013-05-23 17:03:00,
2013-05-23 10:11:00,46.0,37.0,-100.00,SSW,195,4.0,11.0,72,0.01,,,0.19,474.000000,,2013-05-23 17:11:00,
2013-05-23 10:33:00,46.0,37.0,-100.00,SSW,200,3.0,11.0,72,0.00,,,0.18,447.000000,,2013-05-23 17:33:00,
2013-05-23 10:43:00,46.0,37.0,-100.00,SSW,200,3.0,11.0,72,0.00,,,0.18,447.000000,,2013-05-23 17:43:00,
2013-05-23 10:52:00,46.0,37.0,-100.00,SSW,200,3.0,11.0,72,0.00,,,0.18,447.000000,,2013-05-23 17:52:00,
2013-05-23 11:01:00,46.0,37.0,-100.00,SSW,200,3.0,11.0,72,0.00,,,0.18,447.000000,,2013-05-23 18:01:00,
2013-05-23 11:11:00,46.0,37.0,-100.00,SSW,200,3.0,11.0,72,0.00,,,0.18,447.000000,,2013-05-23 18:11:00,
2013-05-23 11:32:00,50.0,38.0,-100.00,SW,227,5.0,11.0,62,0.00,,,0.17,606.000000,,2013-05-23 18:32:00,
2013-05-23 12:01:00,50.0,38.0,-100.00,SW,227,5.0,11.0,62,0.00,,,0.17,606.000000,,2013-05-23 19:01:00,
2013-05-23 12:11:00,50.0,38.0,-100.00,SW,227,5.0,11.0,62,0.00,,,0.17,606.000000,,2013-05-23 19:11:00,
2013-05-23 12:32:00,48.0,35.0,-100.00,SSW,209,3.0,13.0,61,0.00,,,0.16,573.000000,,2013-05-23 19:32:00,
2013-05-23 12:42:00,48.0,35.0,-100.00,SSW,209,3.0,13.0,61,0.00,,,0.16,573.000000,,2013-05-23 19:42:00,
2013-05-23 12:52:00,48.0,35.0,-100.00,SSW,209,3.0,13.0,61,0.00,,,0.16,573.000000,,2013-05-23 19:52:00,
2013-05-23 13:02:00,48.0,35.0,-100.00,SSW,209,3.0,13.0,61,0.00,,,0.16,573.000000,,2013-05-23 20:02:00,
2013-05-23 13:11:00,48.0,35.0,-100.00,SSW,209,3.0,13.0,61,0.00,,,0.16,573.000000,,2013-05-23 20:11:00,
2013-05-23 13:32:00,47.0,36.0,-100.00,SW,223,4.0,9.0,66,0.00,,,0.15,412.000000,,2013-05-23 20:32:00,
2013-05-23 13:42:00,47.0,36.0,-100.00,SW,223,4.0,9.0,66,0.00,,,0.15,412.000000,,2013-05-23 20:42:00,
2013-05-23 13:52:00,47.0,36.0,-100.00,SW,223,4.0,9.0,66,0.00,,,0.15,412.000000,,2013-05-23 20:52:00,
2013-05-23 14:01:00,47.0,36.0,-100.00,SW,223,4.0,9.0,66,0.00,,,0.15,412.000000,,2013-05-23 21:01:00,
2013-05-23 14:11:00,47.0,36.0,-100.00,SW,223,4.0,9.0,66,0.00,,,0.15,412.000000,,2013-05-23 21:11:00,
2013-05-23 14:33:00,46.0,41.0,-100.00,WSW,253,4.0,11.0,83,0.05,,,0.18,464.000000,,2013-05-23 21:33:00,
2013-05-23 14:43:00,46.0,41.0,-100.00,WSW,253,4.0,11.0,83,0.05,,,0.18,464.000000,,2013-05-23 21:43:00,
2013-05-23 14:53:00,46.0,41.0,-100.00,WSW,253,4.0,11.0,83,0.05,,,0.18,464.000000,,2013-05-23 21:53:00,
2013-05-23 15:02:00,46.0,41.0,-100.00,WSW,253,4.0,11.0,83,0.05,,,0.18,464.000000,,2013-05-23 22:02:00,
2013-05-23 15:12:00,46.0,41.0,-100.00,WSW,253,4.0,11.0,83,0.05,,,0.18,464.000000,,2013-05-23 22:12:00,
2013-05-23 15:33:00,47.0,40.0,-100.00,SSE,167,2.0,7.0,77,0.00,,,0.17,344.000000,,2013-05-23 22:33:00,
2013-05-23 15:42:00,47.0,40.0,-100.00,SSE,167,2.0,7.0,77,0.00,,,0.17,344.000000,,2013-05-23 22:42:00,
2013-05-23 15:52:00,47.0,40.0,-100.00,SSE,167,2.0,7.0,77,0.00,,,0.17,344.000000,,2013-05-23 22:52:00,
2013-05-23 16:01:00,47.0,40.0,-100.00,SSE,167,2.0,7.0,77,0.00,,,0.17,344.000000,,2013-05-23 23:01:00,
2013-05-23 16:11:00,47.0,40.0,-100.00,SSE,167,2.0,7.0,77,0.00,,,0.17,344.000000,,2013-05-23 23:11:00,
2013-05-23 16:32:00,49.0,39.0,-100.00,SW,225,4.0,13.0,67,0.00,,,0.16,418.000000,,2013-05-23 23:32:00,
2013-05-23 16:42:00,49.0,39.0,-100.00,SW,225,4.0,13.0,67,0.00,,,0.16,418.000000,,2013-05-23 23:42:00,
2013-05-23 16:52:00,49.0,39.0,-100.00,SW,225,4.0,13.0,67,0.00,,,0.16,418.000000,,2013-05-23 23:52:00,
2013-05-23 17:01:00,49.0,39.0,-100.00,SW,225,4.0,13.0,67,0.00,,,0.16,418.000000,,2013-05-24 00:01:00,
2013-05-23 17:11:00,49.0,39.0,-100.00,SW,225,4.0,13.0,67,0.00,,,0.16,418.000000,,2013-05-24 00:11:00,
2013-05-23 17:32:00,48.0,36.0,-100.00,WSW,241,3.0,12.0,64,0.00,,,-99.99,342.000000,,2013-05-24 00:32:00,
2013-05-23 17:42:00,48.0,36.0,-100.00,WSW,241,3.0,12.0,64,0.00,,,-99.99,342.000000,,2013-05-24 00:42:00,
2013-05-23 17:52:00,48.0,36.0,-100.00,WSW,241,3.0,12.0,64,0.00,,,-99.99,342.000000,,2013-05-24 00:52:00,
2013-05-23 18:01:00,48.0,36.0,-100.00,WSW,241,3.0,12.0,64,0.00,,,-99.99,342.000000,,2013-05-24 01:01:00,
2013-05-23 18:12:00,48.0,36.0,-100.00,WSW,241,3.0,12.0,64,0.00,,,-99.99,342.000000,,2013-05-24 01:12:00,
2013-05-23 18:32:00,46.0,36.0,-100.00,WNW,298,1.0,9.0,67,0.00,,,0.13,178.000000,,2013-05-24 01:32:00,
2013-05-23 18:42:00,46.0,36.0,-100.00,WNW,298,1.0,9.0,67,0.00,,,0.13,178.000000,,2013-05-24 01:42:00,
2013-05-23 18:52:00,46.0,36.0,-100.00,WNW,298,1.0,9.0,67,0.00,,,0.13,178.000000,,2013-05-24 01:52:00,
2013-05-23 19:01:00,46.0,36.0,-100.00,WNW,298,1.0,9.0,67,0.00,,,0.13,178.000000,,2013-05-24 02:01:00,
2013-05-23 19:11:00,46.0,36.0,-100.00,WNW,298,1.0,9.0,67,0.00,,,0.13,178.000000,,2013-05-24 02:11:00,
2013-05-23 19:32:00,45.0,35.0,-100.00,West,274,2.0,7.0,67,0.00,,,0.10,91.000000,,2013-05-24 02:32:00,
2013-05-23 19:42:00,45.0,35.0,-100.00,West,274,2.0,7.0,67,0.00,,,0.10,91.000000,,2013-05-24 02:42:00,
2013-05-23 19:52:00,45.0,35.0,-100.00,West,274,2.0,7.0,67,0.00,,,0.10,91.000000,,2013-05-24 02:52:00,
2013-05-23 20:02:00,45.0,35.0,-100.00,West,274,2.0,7.0,67,0.00,,,0.10,91.000000,,2013-05-24 03:02:00,
2013-05-23 20:11:00,45.0,35.0,-100.00,West,274,2.0,7.0,67,0.00,,,0.10,91.000000,,2013-05-24 03:11:00,
2013-05-23 20:33:00,42.0,34.0,-100.00,SW,222,5.0,16.0,73,0.00,,,0.07,29.000000,,2013-05-24 03:33:00,
2013-05-23 20:42:00,42.0,34.0,-100.00,SW,222,5.0,16.0,73,0.00,,,0.07,29.000000,,2013-05-24 03:42:00,
2013-05-23 20:53:00,42.0,34.0,-100.00,SW,222,5.0,16.0,73,0.00,,,0.07,29.000000,,2013-05-24 03:53:00,
2013-05-23 21:03:00,42.0,34.0,-100.00,SW,222,5.0,16.0,73,0.00,,,0.07,29.000000,,2013-05-24 04:03:00,
2013-05-23 21:12:00,42.0,34.0,-100.00,SW,222,5.0,16.0,73,0.00,,,0.07,29.000000,,2013-05-24 04:12:00,
2013-05-23 21:33:00,41.0,33.0,-100.00,SW,219,5.0,14.0,74,0.00,,,0.06,2.000000,,2013-05-24 04:33:00,
2013-05-23 21:42:00,41.0,33.0,-100.00,SW,219,5.0,14.0,74,0.00,,,0.06,2.000000,,2013-05-24 04:42:00,
2013-05-23 21:53:00,41.0,33.0,-100.00,SW,219,5.0,14.0,74,0.00,,,0.06,2.000000,,2013-05-24 04:53:00,
2013-05-23 22:02:00,41.0,33.0,-100.00,SW,219,5.0,14.0,74,0.00,,,0.06,2.000000,,2013-05-24 05:02:00,
2013-05-23 22:12:00,41.0,33.0,-100.00,SW,219,5.0,14.0,74,0.00,,,0.06,2.000000,,2013-05-24 05:12:00,
2013-05-23 22:32:00,39.0,36.0,-100.00,SW,228,5.0,15.0,89,0.00,,,0.06,0.000000,,2013-05-24 05:32:00,
2013-05-23 22:42:00,39.0,36.0,-100.00,SW,228,5.0,15.0,89,0.00,,,0.06,0.000000,,2013-05-24 05:42:00,
2013-05-23 22:52:00,39.0,36.0,-100.00,SW,228,5.0,15.0,89,0.00,,,0.06,0.000000,,2013-05-24 05:52:00,
2013-05-23 23:01:00,39.0,36.0,-100.00,SW,228,5.0,15.0,89,0.00,,,0.06,0.000000,,2013-05-24 06:01:00,
2013-05-23 23:11:00,39.0,36.0,-100.00,SW,228,5.0,15.0,89,0.00,,,0.06,0.000000,,2013-05-24 06:11:00,
2013-05-23 23:32:00,38.0,36.0,-100.00,SSW,206,3.0,11.0,94,0.02,,,0.08,0.000000,,2013-05-24 06:32:00,
2013-05-23 23:42:00,38.0,36.0,-100.00,SSW,206,3.0,11.0,94,0.02,,,0.08,0.000000,,2013-05-24 06:42:00,
2013-05-23 23:52:00,38.0,36.0,-100.00,SSW,206,3.0,11.0,94,0.02,,,0.08,0.000000,,2013-05-24 06:52:00,